sensor_id;sensor_type;location;lat;lon;timestamp;pressure;altitude;pressure_sealevel;temperature;humidity
29239;BME280;16267;48.194;11.546;2023-07-31T00:00:27;96119.13;;;18.72;64.92
29239;BME280;16267;48.194;11.546;2023-07-31T00:02:54;96119.56;;;18.70;65.08
29239;BME280;16267;48.194;11.546;2023-07-31T00:05:20;96118.53;;;18.68;64.70
29239;BME280;16267;48.194;11.546;2023-07-31T00:07:45;96113.69;;;18.63;65.03
29239;BME280;16267;48.194;11.546;2023-07-31T00:10:11;96115.34;;;18.60;65.28
29239;BME280;16267;48.194;11.546;2023-07-31T00:12:39;96113.53;;;18.57;65.31
29239;BME280;16267;48.194;11.546;2023-07-31T00:15:06;96117.88;;;18.55;65.14
29239;BME280;16267;48.194;11.546;2023-07-31T00:17:32;96110.63;;;18.52;65.47
29239;BME280;16267;48.194;11.546;2023-07-31T00:19:58;96112.56;;;18.51;65.52
29239;BME280;16267;48.194;11.546;2023-07-31T00:22:24;96115.75;;;18.49;65.55
29239;BME280;16267;48.194;11.546;2023-07-31T00:24:50;96117.84;;;18.45;65.92
29239;BME280;16267;48.194;11.546;2023-07-31T00:27:15;96117.09;;;18.45;65.88
29239;BME280;16267;48.194;11.546;2023-07-31T00:29:41;96115.28;;;18.42;66.14
29239;BME280;16267;48.194;11.546;2023-07-31T00:32:07;96107.59;;;18.40;66.08
29239;BME280;16267;48.194;11.546;2023-07-31T00:34:33;96106.53;;;18.38;66.74
29239;BME280;16267;48.194;11.546;2023-07-31T00:36:59;96106.94;;;18.36;66.89
29239;BME280;16267;48.194;11.546;2023-07-31T00:39:25;96109.34;;;18.34;67.29
29239;BME280;16267;48.194;11.546;2023-07-31T00:41:50;96105.56;;;18.32;67.66
29239;BME280;16267;48.194;11.546;2023-07-31T00:44:16;96100.91;;;18.32;67.47
29239;BME280;16267;48.194;11.546;2023-07-31T00:46:42;96090.94;;;18.29;67.69
29239;BME280;16267;48.194;11.546;2023-07-31T00:49:09;96094.09;;;18.27;68.00
29239;BME280;16267;48.194;11.546;2023-07-31T00:51:35;96093.03;;;18.25;68.28
29239;BME280;16267;48.194;11.546;2023-07-31T00:54:02;96096.97;;;18.24;67.92
29239;BME280;16267;48.194;11.546;2023-07-31T00:56:28;96089.25;;;18.22;68.28
29239;BME280;16267;48.194;11.546;2023-07-31T00:58:55;96085.03;;;18.21;68.17
29239;BME280;16267;48.194;11.546;2023-07-31T01:01:21;96096.66;;;18.22;67.99
29239;BME280;16267;48.194;11.546;2023-07-31T01:03:48;96094.38;;;18.20;68.19
29239;BME280;16267;48.194;11.546;2023-07-31T01:08:57;96080.50;;;18.18;68.15
29239;BME280;16267;48.194;11.546;2023-07-31T01:11:39;96083.66;;;18.17;68.26
29239;BME280;16267;48.194;11.546;2023-07-31T01:14:08;96088.66;;;18.18;68.64
29239;BME280;16267;48.194;11.546;2023-07-31T01:16:34;96084.41;;;18.17;68.20
29239;BME280;16267;48.194;11.546;2023-07-31T01:18:59;96075.50;;;18.17;68.81
29239;BME280;16267;48.194;11.546;2023-07-31T01:25:12;96081.41;;;18.15;68.46
29239;BME280;16267;48.194;11.546;2023-07-31T01:27:51;96072.94;;;18.13;68.76
29239;BME280;16267;48.194;11.546;2023-07-31T01:30:24;96067.94;;;18.12;68.53
29239;BME280;16267;48.194;11.546;2023-07-31T01:32:51;96065.69;;;18.10;68.73
29239;BME280;16267;48.194;11.546;2023-07-31T01:35:18;96058.72;;;18.09;68.90
29239;BME280;16267;48.194;11.546;2023-07-31T01:37:45;96063.41;;;18.09;69.00
29239;BME280;16267;48.194;11.546;2023-07-31T01:40:11;96057.22;;;18.08;69.14
29239;BME280;16267;48.194;11.546;2023-07-31T01:42:37;96058.72;;;18.09;69.16
29239;BME280;16267;48.194;11.546;2023-07-31T01:45:03;96068.06;;;18.08;68.96
29239;BME280;16267;48.194;11.546;2023-07-31T01:47:29;96061.91;;;18.08;68.94
29239;BME280;16267;48.194;11.546;2023-07-31T01:49:54;96061.16;;;18.07;69.38
29239;BME280;16267;48.194;11.546;2023-07-31T01:52:20;96055.41;;;18.05;69.10
29239;BME280;16267;48.194;11.546;2023-07-31T01:54:46;96053.13;;;18.03;68.87
29239;BME280;16267;48.194;11.546;2023-07-31T01:57:12;96050.41;;;18.03;68.61
29239;BME280;16267;48.194;11.546;2023-07-31T01:59:37;96053.13;;;18.03;68.42
29239;BME280;16267;48.194;11.546;2023-07-31T02:02:03;96054.31;;;18.02;68.24
29239;BME280;16267;48.194;11.546;2023-07-31T02:04:29;96061.72;;;18.02;68.26
29239;BME280;16267;48.194;11.546;2023-07-31T02:06:55;96060.97;;;18.01;68.35
29239;BME280;16267;48.194;11.546;2023-07-31T02:09:20;96050.13;;;18.01;68.26
29239;BME280;16267;48.194;11.546;2023-07-31T02:11:46;96048.59;;;18.00;68.86
29239;BME280;16267;48.194;11.546;2023-07-31T02:14:12;96045.53;;;17.98;68.99
29239;BME280;16267;48.194;11.546;2023-07-31T02:16:37;96038.19;;;17.99;68.75
29239;BME280;16267;48.194;11.546;2023-07-31T02:19:03;96037.13;;;17.96;69.01
29239;BME280;16267;48.194;11.546;2023-07-31T02:21:29;96040.59;;;17.97;69.12
29239;BME280;16267;48.194;11.546;2023-07-31T02:23:55;96030.94;;;17.96;68.80
29239;BME280;16267;48.194;11.546;2023-07-31T02:26:20;96032.13;;;17.95;68.88
29239;BME280;16267;48.194;11.546;2023-07-31T02:28:46;96029.41;;;17.95;69.18
29239;BME280;16267;48.194;11.546;2023-07-31T02:31:12;96025.19;;;17.94;69.50
29239;BME280;16267;48.194;11.546;2023-07-31T02:33:37;96023.66;;;17.93;69.56
29239;BME280;16267;48.194;11.546;2023-07-31T02:36:04;96018.69;;;17.91;69.56
29239;BME280;16267;48.194;11.546;2023-07-31T02:38:29;96019.13;;;17.90;69.67
29239;BME280;16267;48.194;11.546;2023-07-31T02:40:55;96017.63;;;17.89;69.32
29239;BME280;16267;48.194;11.546;2023-07-31T02:43:21;96012.19;;;17.89;69.46
29239;BME280;16267;48.194;11.546;2023-07-31T02:45:54;96018.06;;;17.87;69.67
29239;BME280;16267;48.194;11.546;2023-07-31T02:48:19;96017.00;;;17.84;69.61
29239;BME280;16267;48.194;11.546;2023-07-31T02:50:47;96007.34;;;17.83;69.70
29239;BME280;16267;48.194;11.546;2023-07-31T02:53:12;96007.03;;;17.81;69.70
29239;BME280;16267;48.194;11.546;2023-07-31T02:55:38;96005.22;;;17.78;70.06
29239;BME280;16267;48.194;11.546;2023-07-31T02:58:04;96000.66;;;17.75;70.40
29239;BME280;16267;48.194;11.546;2023-07-31T03:00:30;95997.63;;;17.73;70.19
29239;BME280;16267;48.194;11.546;2023-07-31T03:02:56;96002.75;;;17.71;70.41
29239;BME280;16267;48.194;11.546;2023-07-31T03:05:21;96009.38;;;17.70;70.42
29239;BME280;16267;48.194;11.546;2023-07-31T03:07:47;96000.94;;;17.68;70.41
29239;BME280;16267;48.194;11.546;2023-07-31T03:10:13;95992.91;;;17.65;70.25
29239;BME280;16267;48.194;11.546;2023-07-31T03:12:40;96000.75;;;17.63;70.77
29239;BME280;16267;48.194;11.546;2023-07-31T03:15:06;95995.44;;;17.59;70.75
29239;BME280;16267;48.194;11.546;2023-07-31T03:17:32;95998.63;;;17.57;70.97
29239;BME280;16267;48.194;11.546;2023-07-31T03:19:58;95993.31;;;17.54;71.25
29239;BME280;16267;48.194;11.546;2023-07-31T03:22:24;96002.34;;;17.51;71.21
29239;BME280;16267;48.194;11.546;2023-07-31T03:24:50;95993.59;;;17.47;71.78
29239;BME280;16267;48.194;11.546;2023-07-31T03:27:15;95996.75;;;17.45;71.74
29239;BME280;16267;48.194;11.546;2023-07-31T03:29:41;96001.41;;;17.45;72.02
29239;BME280;16267;48.194;11.546;2023-07-31T03:32:07;96000.34;;;17.42;72.02
29239;BME280;16267;48.194;11.546;2023-07-31T03:34:33;96010.13;;;17.39;72.21
29239;BME280;16267;48.194;11.546;2023-07-31T03:36:59;96016.00;;;17.38;72.20
29239;BME280;16267;48.194;11.546;2023-07-31T03:39:25;96011.75;;;17.37;72.75
29239;BME280;16267;48.194;11.546;2023-07-31T03:41:51;96014.47;;;17.37;72.66
29239;BME280;16267;48.194;11.546;2023-07-31T03:44:16;96009.06;;;17.37;72.47
29239;BME280;16267;48.194;11.546;2023-07-31T03:46:42;96011.75;;;17.37;73.24
29239;BME280;16267;48.194;11.546;2023-07-31T03:49:08;96011.75;;;17.37;72.94
29239;BME280;16267;48.194;11.546;2023-07-31T03:51:33;96009.81;;;17.37;73.21
29239;BME280;16267;48.194;11.546;2023-07-31T03:53:59;96009.06;;;17.37;73.20
29239;BME280;16267;48.194;11.546;2023-07-31T03:56:25;96015.22;;;17.37;73.32
29239;BME280;16267;48.194;11.546;2023-07-31T03:58:51;96008.63;;;17.38;74.16
29239;BME280;16267;48.194;11.546;2023-07-31T04:01:16;96012.50;;;17.37;74.61
29239;BME280;16267;48.194;11.546;2023-07-31T04:03:43;96011.34;;;17.38;74.55
29239;BME280;16267;48.194;11.546;2023-07-31T04:06:09;96010.59;;;17.38;74.70
29239;BME280;16267;48.194;11.546;2023-07-31T04:08:35;96009.81;;;17.37;75.52
29239;BME280;16267;48.194;11.546;2023-07-31T04:11:01;96001.66;;;17.37;75.80
29239;BME280;16267;48.194;11.546;2023-07-31T04:13:26;95995.06;;;17.38;75.88
29239;BME280;16267;48.194;11.546;2023-07-31T04:15:54;96007.41;;;17.39;75.47
29239;BME280;16267;48.194;11.546;2023-07-31T04:18:20;96001.22;;;17.39;75.69
29239;BME280;16267;48.194;11.546;2023-07-31T04:20:45;96004.28;;;17.41;75.75
29239;BME280;16267;48.194;11.546;2023-07-31T04:23:11;96005.78;;;17.42;76.17
29239;BME280;16267;48.194;11.546;2023-07-31T04:25:37;95995.66;;;17.43;76.80
29239;BME280;16267;48.194;11.546;2023-07-31T04:28:03;95995.66;;;17.43;76.62
29239;BME280;16267;48.194;11.546;2023-07-31T04:30:29;95996.75;;;17.45;76.58
29239;BME280;16267;48.194;11.546;2023-07-31T04:32:54;96002.47;;;17.47;77.02
29239;BME280;16267;48.194;11.546;2023-07-31T04:35:20;96003.97;;;17.48;77.17
29239;BME280;16267;48.194;11.546;2023-07-31T04:37:46;96002.34;;;17.51;77.64
29239;BME280;16267;48.194;11.546;2023-07-31T04:40:15;96004.63;;;17.52;77.51
29239;BME280;16267;48.194;11.546;2023-07-31T04:42:41;96001.44;;;17.54;77.61
29239;BME280;16267;48.194;11.546;2023-07-31T04:45:08;95997.56;;;17.55;78.07
29239;BME280;16267;48.194;11.546;2023-07-31T04:47:34;95996.34;;;17.56;77.69
29239;BME280;16267;48.194;11.546;2023-07-31T04:50:00;95994.38;;;17.56;78.45
29239;BME280;16267;48.194;11.546;2023-07-31T04:52:26;95990.03;;;17.59;78.35
29239;BME280;16267;48.194;11.546;2023-07-31T04:54:52;95993.81;;;17.61;77.89
29239;BME280;16267;48.194;11.546;2023-07-31T04:57:17;95984.75;;;17.65;78.29
29239;BME280;16267;48.194;11.546;2023-07-31T04:59:43;95989.00;;;17.66;77.99
29239;BME280;16267;48.194;11.546;2023-07-31T05:02:09;95991.59;;;17.69;78.58
29239;BME280;16267;48.194;11.546;2023-07-31T05:04:34;95982.97;;;17.71;78.61
29239;BME280;16267;48.194;11.546;2023-07-31T05:07:00;95986.00;;;17.73;79.72
29239;BME280;16267;48.194;11.546;2023-07-31T05:09:26;95991.75;;;17.75;79.91
29239;BME280;16267;48.194;11.546;2023-07-31T05:11:51;95994.34;;;17.78;79.25
29239;BME280;16267;48.194;11.546;2023-07-31T05:14:17;95996.94;;;17.82;78.82
29239;BME280;16267;48.194;11.546;2023-07-31T05:16:43;96000.25;;;17.86;79.20
29239;BME280;16267;48.194;11.546;2023-07-31T05:19:08;95992.44;;;17.88;78.28
29239;BME280;16267;48.194;11.546;2023-07-31T05:21:34;95996.97;;;17.91;78.21
29239;BME280;16267;48.194;11.546;2023-07-31T05:24:00;96003.00;;;17.95;78.05
29239;BME280;16267;48.194;11.546;2023-07-31T05:26:26;95989.31;;;17.99;78.30
29239;BME280;16267;48.194;11.546;2023-07-31T05:28:51;95987.50;;;18.05;78.08
29239;BME280;16267;48.194;11.546;2023-07-31T05:31:17;95984.63;;;18.09;77.68
29239;BME280;16267;48.194;11.546;2023-07-31T05:33:43;95980.25;;;18.11;76.62
29239;BME280;16267;48.194;11.546;2023-07-31T05:36:09;95991.59;;;18.19;77.24
29239;BME280;16267;48.194;11.546;2023-07-31T05:38:34;95988.91;;;18.28;77.44
29239;BME280;16267;48.194;11.546;2023-07-31T05:41:00;95991.63;;;18.37;77.66
29239;BME280;16267;48.194;11.546;2023-07-31T05:43:26;95984.84;;;18.42;77.15
29239;BME280;16267;48.194;11.546;2023-07-31T05:45:52;95989.53;;;18.50;77.05
29239;BME280;16267;48.194;11.546;2023-07-31T05:48:17;95988.63;;;18.54;76.13
29239;BME280;16267;48.194;11.546;2023-07-31T05:50:43;95986.22;;;18.56;74.60
29239;BME280;16267;48.194;11.546;2023-07-31T05:53:09;95993.47;;;18.59;74.43
29239;BME280;16267;48.194;11.546;2023-07-31T05:55:35;95990.59;;;18.53;72.05
29239;BME280;16267;48.194;11.546;2023-07-31T05:58:01;95977.16;;;18.59;73.79
29239;BME280;16267;48.194;11.546;2023-07-31T06:00:27;95988.63;;;18.63;73.66
29239;BME280;16267;48.194;11.546;2023-07-31T06:02:53;95992.69;;;18.67;74.15
29239;BME280;16267;48.194;11.546;2023-07-31T06:05:19;95990.59;;;18.71;73.81
29239;BME280;16267;48.194;11.546;2023-07-31T06:07:45;95994.41;;;18.74;73.13
29239;BME280;16267;48.194;11.546;2023-07-31T06:10:11;95994.41;;;18.74;72.00
29239;BME280;16267;48.194;11.546;2023-07-31T06:12:37;95995.47;;;18.77;72.10
29239;BME280;16267;48.194;11.546;2023-07-31T06:15:03;95991.09;;;18.79;72.29
29239;BME280;16267;48.194;11.546;2023-07-31T06:17:29;95993.50;;;18.77;70.97
29239;BME280;16267;48.194;11.546;2023-07-31T06:19:56;95993.19;;;18.84;71.17
29239;BME280;16267;48.194;11.546;2023-07-31T06:22:22;95996.53;;;18.79;69.50
29239;BME280;16267;48.194;11.546;2023-07-31T06:24:48;96003.78;;;18.82;69.58
29239;BME280;16267;48.194;11.546;2023-07-31T06:27:14;95992.16;;;18.82;69.10
29239;BME280;16267;48.194;11.546;2023-07-31T06:29:39;95994.69;;;18.85;69.58
29239;BME280;16267;48.194;11.546;2023-07-31T06:32:06;95996.81;;;18.90;70.01
29239;BME280;16267;48.194;11.546;2023-07-31T06:34:31;95994.09;;;18.90;69.61
29239;BME280;16267;48.194;11.546;2023-07-31T06:36:57;95998.94;;;18.96;69.94
29239;BME280;16267;48.194;11.546;2023-07-31T06:39:23;96001.03;;;19.01;69.47
29239;BME280;16267;48.194;11.546;2023-07-31T06:41:49;96007.06;;;19.05;69.20
29239;BME280;16267;48.194;11.546;2023-07-31T06:44:14;95999.97;;;19.07;69.71
29239;BME280;16267;48.194;11.546;2023-07-31T06:46:40;95997.56;;;19.09;68.97
29239;BME280;16267;48.194;11.546;2023-07-31T06:49:06;95992.53;;;19.17;69.32
29239;BME280;16267;48.194;11.546;2023-07-31T06:51:32;95992.69;;;19.23;69.26
29239;BME280;16267;48.194;11.546;2023-07-31T06:53:58;95990.88;;;19.29;69.21
29239;BME280;16267;48.194;11.546;2023-07-31T06:56:23;95986.31;;;19.35;69.50
29239;BME280;16267;48.194;11.546;2023-07-31T06:58:49;95984.94;;;19.39;70.25
29239;BME280;16267;48.194;11.546;2023-07-31T07:01:15;95983.88;;;19.46;70.07
29239;BME280;16267;48.194;11.546;2023-07-31T07:03:41;95987.63;;;19.49;68.28
29239;BME280;16267;48.194;11.546;2023-07-31T07:06:07;95983.88;;;19.46;67.20
29239;BME280;16267;48.194;11.546;2023-07-31T07:08:32;95985.06;;;19.45;67.65
29239;BME280;16267;48.194;11.546;2023-07-31T07:10:58;95985.22;;;19.42;66.73
29239;BME280;16267;48.194;11.546;2023-07-31T07:13:24;95988.84;;;19.48;67.09
29239;BME280;16267;48.194;11.546;2023-07-31T07:15:50;95986.41;;;19.50;66.25
29239;BME280;16267;48.194;11.546;2023-07-31T07:18:17;95991.69;;;19.53;66.77
29239;BME280;16267;48.194;11.546;2023-07-31T07:20:51;95987.03;;;19.54;66.62
29239;BME280;16267;48.194;11.546;2023-07-31T07:23:17;95984.31;;;19.54;65.41
29239;BME280;16267;48.194;11.546;2023-07-31T07:25:45;95979.88;;;19.56;66.01
29239;BME280;16267;48.194;11.546;2023-07-31T07:28:11;95983.97;;;19.61;66.70
29239;BME280;16267;48.194;11.546;2023-07-31T07:30:37;95978.06;;;19.63;65.83
29239;BME280;16267;48.194;11.546;2023-07-31T07:33:03;95979.28;;;19.71;66.91
29239;BME280;16267;48.194;11.546;2023-07-31T07:35:29;95983.78;;;19.74;67.38
29239;BME280;16267;48.194;11.546;2023-07-31T07:37:55;95976.38;;;19.74;65.76
29239;BME280;16267;48.194;11.546;2023-07-31T07:40:22;95976.25;;;19.69;64.63
29239;BME280;16267;48.194;11.546;2023-07-31T07:42:48;95963.50;;;19.75;65.95
29239;BME280;16267;48.194;11.546;2023-07-31T07:45:14;95962.72;;;19.83;66.36
29239;BME280;16267;48.194;11.546;2023-07-31T07:47:41;95962.09;;;19.89;65.35
29239;BME280;16267;48.194;11.546;2023-07-31T07:50:07;95961.16;;;19.92;65.27
29239;BME280;16267;48.194;11.546;2023-07-31T07:55:01;95951.53;;;20.05;64.31
29239;BME280;16267;48.194;11.546;2023-07-31T07:57:29;95951.84;;;20.08;63.18
29239;BME280;16267;48.194;11.546;2023-07-31T07:59:54;95945.75;;;20.13;64.08
29239;BME280;16267;48.194;11.546;2023-07-31T08:02:21;95942.56;;;20.14;63.45
29239;BME280;16267;48.194;11.546;2023-07-31T08:04:47;95939.78;;;20.23;64.43
29239;BME280;16267;48.194;11.546;2023-07-31T08:07:13;95945.34;;;20.29;62.53
29239;BME280;16267;48.194;11.546;2023-07-31T08:09:39;95948.19;;;20.35;63.27
29239;BME280;16267;48.194;11.546;2023-07-31T08:12:06;95950.72;;;20.38;61.93
29239;BME280;16267;48.194;11.546;2023-07-31T08:14:32;95945.69;;;20.46;62.20
29239;BME280;16267;48.194;11.546;2023-07-31T08:16:58;95943.94;;;20.58;62.38
29239;BME280;16267;48.194;11.546;2023-07-31T08:19:24;95936.25;;;20.71;62.57
29239;BME280;16267;48.194;11.546;2023-07-31T08:21:50;95937.41;;;20.79;59.88
29239;BME280;16267;48.194;11.546;2023-07-31T08:24:16;95946.13;;;20.83;59.45
29239;BME280;16267;48.194;11.546;2023-07-31T08:26:42;95946.88;;;20.84;58.64
29239;BME280;16267;48.194;11.546;2023-07-31T08:29:08;95945.09;;;20.81;57.43
29239;BME280;16267;48.194;11.546;2023-07-31T08:31:33;95947.94;;;20.86;57.34
29239;BME280;16267;48.194;11.546;2023-07-31T08:34:00;95952.81;;;20.97;58.63
29239;BME280;16267;48.194;11.546;2023-07-31T08:36:26;95949.34;;;20.97;56.36
29239;BME280;16267;48.194;11.546;2023-07-31T08:38:52;95942.75;;;21.03;56.67
29239;BME280;16267;48.194;11.546;2023-07-31T08:41:18;95947.38;;;20.97;55.82
29239;BME280;16267;48.194;11.546;2023-07-31T08:43:49;95941.66;;;20.95;55.40
29239;BME280;16267;48.194;11.546;2023-07-31T08:46:15;95936.75;;;20.99;55.25
29239;BME280;16267;48.194;11.546;2023-07-31T08:48:44;95940.53;;;21.02;55.89
29239;BME280;16267;48.194;11.546;2023-07-31T08:51:14;95938.06;;;21.04;55.65
29239;BME280;16267;48.194;11.546;2023-07-31T08:53:40;95936.00;;;20.99;56.29
29239;BME280;16267;48.194;11.546;2023-07-31T08:56:06;95944.66;;;20.97;57.12
29239;BME280;16267;48.194;11.546;2023-07-31T08:58:33;95940.13;;;20.79;55.28
29239;BME280;16267;48.194;11.546;2023-07-31T09:01:03;95945.09;;;20.81;55.83
29239;BME280;16267;48.194;11.546;2023-07-31T09:03:34;95941.81;;;20.77;57.17
29239;BME280;16267;48.194;11.546;2023-07-31T09:06:02;95944.34;;;20.80;57.84
29239;BME280;16267;48.194;11.546;2023-07-31T09:08:31;95952.44;;;20.75;57.69
29239;BME280;16267;48.194;11.546;2023-07-31T09:11:00;95943.03;;;20.76;57.14
29239;BME280;16267;48.194;11.546;2023-07-31T09:13:30;95940.31;;;20.90;58.02
29239;BME280;16267;48.194;11.546;2023-07-31T09:15:56;95934.47;;;20.98;58.75
29239;BME280;16267;48.194;11.546;2023-07-31T09:18:22;95927.63;;;21.02;57.43
29239;BME280;16267;48.194;11.546;2023-07-31T09:21:06;95917.47;;;21.03;55.10
29239;BME280;16267;48.194;11.546;2023-07-31T09:23:49;95924.69;;;21.06;53.81
29239;BME280;16267;48.194;11.546;2023-07-31T09:26:37;95918.13;;;21.12;55.64
29239;BME280;16267;48.194;11.546;2023-07-31T09:29:07;95923.38;;;21.16;55.29
29239;BME280;16267;48.194;11.546;2023-07-31T09:31:43;95923.19;;;21.20;54.53
29239;BME280;16267;48.194;11.546;2023-07-31T09:34:10;95926.78;;;21.26;54.36
29239;BME280;16267;48.194;11.546;2023-07-31T09:36:50;95918.00;;;21.36;54.58
29239;BME280;16267;48.194;11.546;2023-07-31T09:39:17;95918.00;;;21.36;53.75
29239;BME280;16267;48.194;11.546;2023-07-31T09:41:53;95917.84;;;21.40;52.88
29239;BME280;16267;48.194;11.546;2023-07-31T09:44:19;95919.34;;;21.41;52.60
29239;BME280;16267;48.194;11.546;2023-07-31T09:46:45;95912.19;;;21.44;53.64
29239;BME280;16267;48.194;11.546;2023-07-31T09:49:13;95908.38;;;21.56;53.75
29239;BME280;16267;48.194;11.546;2023-07-31T09:51:41;95908.94;;;21.60;54.87
29239;BME280;16267;48.194;11.546;2023-07-31T09:54:16;95897.16;;;21.69;55.24
29239;BME280;16267;48.194;11.546;2023-07-31T09:56:47;95890.19;;;21.68;53.51
29239;BME280;16267;48.194;11.546;2023-07-31T09:59:19;95893.06;;;21.79;53.36
29239;BME280;16267;48.194;11.546;2023-07-31T10:01:46;95891.53;;;21.93;54.69
29239;BME280;16267;48.194;11.546;2023-07-31T10:04:13;95881.69;;;22.01;52.49
29239;BME280;16267;48.194;11.546;2023-07-31T10:06:42;95878.22;;;22.00;51.30
29239;BME280;16267;48.194;11.546;2023-07-31T10:09:11;95874.03;;;22.05;50.73
29239;BME280;16267;48.194;11.546;2023-07-31T10:11:50;95870.25;;;22.02;52.79
29239;BME280;16267;48.194;11.546;2023-07-31T10:14:21;95867.66;;;22.14;53.09
29239;BME280;16267;48.194;11.546;2023-07-31T10:16:49;95861.66;;;22.10;51.32
29239;BME280;16267;48.194;11.546;2023-07-31T10:19:17;95855.00;;;22.16;50.18
29239;BME280;16267;48.194;11.546;2023-07-31T10:21:43;95847.47;;;22.26;50.56
29239;BME280;16267;48.194;11.546;2023-07-31T10:24:09;95840.81;;;22.33;51.30
29239;BME280;16267;48.194;11.546;2023-07-31T10:26:40;95834.19;;;22.39;51.15
29239;BME280;16267;48.194;11.546;2023-07-31T10:29:06;95838.00;;;22.47;51.90
29239;BME280;16267;48.194;11.546;2023-07-31T10:31:34;95839.25;;;22.52;50.30
29239;BME280;16267;48.194;11.546;2023-07-31T10:34:00;95840.34;;;22.60;50.02
29239;BME280;16267;48.194;11.546;2023-07-31T10:36:28;95831.66;;;22.62;48.93
29239;BME280;16267;48.194;11.546;2023-07-31T10:38:56;95831.47;;;22.71;48.62
29239;BME280;16267;48.194;11.546;2023-07-31T10:41:31;95839.22;;;22.73;48.46
29239;BME280;16267;48.194;11.546;2023-07-31T10:43:59;95841.28;;;22.83;50.00
29239;BME280;16267;48.194;11.546;2023-07-31T10:46:28;95835.66;;;22.92;49.55
29239;BME280;16267;48.194;11.546;2023-07-31T10:48:59;95827.59;;;22.83;46.71
29239;BME280;16267;48.194;11.546;2023-07-31T10:51:35;95829.03;;;22.73;46.59
29239;BME280;16267;48.194;11.546;2023-07-31T10:54:12;95828.31;;;22.78;48.07
29239;BME280;16267;48.194;11.546;2023-07-31T10:56:39;95832.06;;;22.81;47.67
29239;BME280;16267;48.194;11.546;2023-07-31T10:59:05;95822.41;;;22.85;47.60
29239;BME280;16267;48.194;11.546;2023-07-31T11:01:54;95818.28;;;22.96;47.39
29239;BME280;16267;48.194;11.546;2023-07-31T11:04:26;95808.44;;;23.09;47.82
29239;BME280;16267;48.194;11.546;2023-07-31T11:07:00;95818.72;;;23.20;47.61
29239;BME280;16267;48.194;11.546;2023-07-31T11:09:32;95819.53;;;23.32;49.24
29239;BME280;16267;48.194;11.546;2023-07-31T11:11:59;95812.38;;;23.46;48.94
29239;BME280;16267;48.194;11.546;2023-07-31T11:14:25;95807.94;;;23.54;47.00
29239;BME280;16267;48.194;11.546;2023-07-31T11:16:51;95800.03;;;23.62;46.40
29239;BME280;16267;48.194;11.546;2023-07-31T11:19:24;95795.56;;;23.70;47.45
29239;BME280;16267;48.194;11.546;2023-07-31T11:21:54;95798.59;;;23.77;46.92
29239;BME280;16267;48.194;11.546;2023-07-31T11:24:21;95794.13;;;23.80;47.89
29239;BME280;16267;48.194;11.546;2023-07-31T11:26:53;95799.91;;;23.88;47.26
29239;BME280;16267;48.194;11.546;2023-07-31T11:29:20;95797.41;;;23.84;46.08
29239;BME280;16267;48.194;11.546;2023-07-31T11:31:47;95791.44;;;23.91;45.68
29239;BME280;16267;48.194;11.546;2023-07-31T11:34:14;95783.50;;;23.99;44.02
29239;BME280;16267;48.194;11.546;2023-07-31T11:36:40;95777.75;;;24.02;45.36
29239;BME280;16267;48.194;11.546;2023-07-31T11:39:10;95777.06;;;24.19;45.44
29239;BME280;16267;48.194;11.546;2023-07-31T11:41:36;95776.31;;;24.24;44.31
29239;BME280;16267;48.194;11.546;2023-07-31T11:44:02;95770.84;;;24.30;42.67
29239;BME280;16267;48.194;11.546;2023-07-31T11:46:31;95761.88;;;24.35;44.32
29239;BME280;16267;48.194;11.546;2023-07-31T11:49:00;95761.63;;;24.27;43.86
29239;BME280;16267;48.194;11.546;2023-07-31T11:51:27;95746.91;;;24.41;44.95
29239;BME280;16267;48.194;11.546;2023-07-31T11:53:58;95753.44;;;24.44;43.62
29239;BME280;16267;48.194;11.546;2023-07-31T11:56:25;95743.72;;;24.54;43.83
29239;BME280;16267;48.194;11.546;2023-07-31T11:58:57;95737.50;;;24.59;43.71
29239;BME280;16267;48.194;11.546;2023-07-31T12:01:23;95731.75;;;24.57;42.77
29239;BME280;16267;48.194;11.546;2023-07-31T12:03:50;95726.00;;;24.66;43.93
29239;BME280;16267;48.194;11.546;2023-07-31T12:06:17;95730.00;;;24.65;44.06
29239;BME280;16267;48.194;11.546;2023-07-31T12:08:44;95728.75;;;24.61;43.21
29239;BME280;16267;48.194;11.546;2023-07-31T12:11:10;95721.75;;;24.65;43.91
29239;BME280;16267;48.194;11.546;2023-07-31T12:13:36;95721.75;;;24.71;44.62
29239;BME280;16267;48.194;11.546;2023-07-31T12:16:03;95709.28;;;24.76;44.37
29239;BME280;16267;48.194;11.546;2023-07-31T12:18:35;95719.00;;;24.82;44.18
29239;BME280;16267;48.194;11.546;2023-07-31T12:21:05;95706.28;;;24.85;44.08
29239;BME280;16267;48.194;11.546;2023-07-31T12:23:33;95713.25;;;24.80;43.37
29239;BME280;16267;48.194;11.546;2023-07-31T12:26:13;95705.03;;;24.75;42.48
29239;BME280;16267;48.194;11.546;2023-07-31T12:28:50;95698.06;;;24.79;43.10
29239;BME280;16267;48.194;11.546;2023-07-31T12:31:21;95697.03;;;24.82;43.80
29239;BME280;16267;48.194;11.546;2023-07-31T12:33:50;95692.56;;;24.79;45.00
29239;BME280;16267;48.194;11.546;2023-07-31T12:36:20;95684.59;;;24.81;43.03
29239;BME280;16267;48.194;11.546;2023-07-31T12:38:46;95689.34;;;24.75;43.01
29239;BME280;16267;48.194;11.546;2023-07-31T12:41:13;95675.06;;;24.88;44.06
29239;BME280;16267;48.194;11.546;2023-07-31T12:43:41;95673.84;;;24.89;42.90
29239;BME280;16267;48.194;11.546;2023-07-31T12:46:08;95674.81;;;24.97;43.23
29239;BME280;16267;48.194;11.546;2023-07-31T12:48:35;95675.53;;;25.09;43.88
29239;BME280;16267;48.194;11.546;2023-07-31T12:51:01;95676.75;;;25.08;42.60
29239;BME280;16267;48.194;11.546;2023-07-31T12:53:28;95664.78;;;25.11;42.99
29239;BME280;16267;48.194;11.546;2023-07-31T12:55:55;95669.81;;;25.01;41.79
29239;BME280;16267;48.194;11.546;2023-07-31T12:58:21;95666.78;;;25.10;42.54